Terminal Aerodrome Forecast
Issued by NWS Omaha/Valley, NE

Home | Current Version | Previous Version | Text Only | Print | Product List | Glossary Off
Versions: 1 2 3 4 5 6 7 8 9 10 11 12 13 14 15 16 17

000
FTUS43 KOAX 262320
TAFOFK
TAF
KOFK 262320Z 2700/2724 07013KT P6SM BKN050
     FM270200 07012KT 4SM TSRA OVC030CB
     FM270600 08013KT 5SM SHRA OVC008
      TEMPO 2706/2710 TS OVC040CB
     FM271000 08015G23KT 5SM SHRA OVC008
     FM271600 09013KT 5SM SHRA OVC008
     FM272200 06010KT 5SM SHRA OVC008=

USA.gov is the U.S. government's official web portal to all federal, state and local government web resources and services.